Time;durP1;ratioP1;P1;durP2;ratioP2;P2;SDS_P1;SDS_P2;PMS_P1;PMS_P2;Temp;Humidity;BMP_temperature;BMP_pressure;BME280_temperature;BME280_humidity;BME280_pressure;Samples;Min_cycle;Max_cycle;Signal;HPM_P1;HPM_P2
2022/06/20 00:02:53;;;;;;;;;;;15.30;1.00;;;;;;10223577;28;84901;-50
2022/06/20 00:07:53;;;;;;;;;;;15.20;1.00;;;;;;10208420;28;84789;-48
2022/06/20 00:12:54;;;;;;;;;;;15.20;1.00;;;;;;10209897;28;84968;-50
2022/06/20 00:17:55;;;;;;;;;;;15.20;20.40;;;;;;10209752;28;84062;-47
2022/06/20 00:22:56;;;;;;;;;;;15.20;16.40;;;;;;10195247;28;85414;-52
2022/06/20 00:27:57;;;;;;;;;;;15.10;8.60;;;;;;10245769;22;85255;-58
2022/06/20 00:32:58;;;;;;;;;;;15.00;1.00;;;;;;10271224;28;84184;-58
2022/06/20 00:37:58;;;;;;;;;;;14.90;38.40;;;;;;10268561;28;87021;-56
2022/06/20 00:42:59;;;;;;;;;;;14.90;29.30;;;;;;10221326;28;84168;-56
2022/06/20 00:48:02;;;;;;;;;;;15.00;28.30;;;;;;10207490;28;86934;-60
2022/06/20 00:53:22;;;;;;;;;;;15.00;50.40;;;;;;10208471;28;84254;-55
2022/06/20 00:58:25;;;;;;;;;;;15.00;99.20;;;;;;10180048;28;87233;-57
2022/06/20 01:03:28;;;;;;;;;;;15.00;99.90;;;;;;10207799;28;84241;-56
2022/06/20 01:08:32;;;;;;;;;;;15.00;99.90;;;;;;10206358;28;84228;-58
2022/06/20 01:13:33;;;;;;;;;;;14.90;99.90;;;;;;10217533;28;84588;-56
2022/06/20 01:18:34;;;;;;;;;;;14.90;99.90;;;;;;10207140;28;84825;-54
2022/06/20 01:23:58;;;;;;;;;;;14.80;99.90;;;;;;10207501;28;84028;-54
2022/06/20 01:29:01;;;;;;;;;;;14.80;99.90;;;;;;10177952;28;84634;-57
2022/06/20 01:34:02;;;;;;;;;;;14.90;99.90;;;;;;10206972;28;84348;-57
2022/06/20 01:39:03;;;;;;;;;;;14.90;48.20;;;;;;10205003;28;85519;-56
2022/06/20 01:44:04;;;;;;;;;;;14.90;34.20;;;;;;10207529;28;84185;-57
2022/06/20 01:49:09;;;;;;;;;;;14.70;32.10;;;;;;10206152;28;86065;-58
2022/06/20 01:54:11;;;;;;;;;;;14.60;16.40;;;;;;10206652;28;84962;-57
2022/06/20 01:59:15;;;;;;;;;;;14.70;19.90;;;;;;10207182;28;85055;-54
2022/06/20 02:04:19;;;;;;;;;;;14.60;67.60;;;;;;10205437;28;84046;-56
2022/06/20 02:09:20;;;;;;;;;;;14.60;58.60;;;;;;10207837;28;84337;-54
2022/06/20 02:14:26;;;;;;;;;;;14.50;39.20;;;;;;10207434;28;84161;-58
2022/06/20 02:19:31;;;;;;;;;;;14.50;46.00;;;;;;10204052;28;85049;-58
2022/06/20 02:24:34;;;;;;;;;;;14.50;27.70;;;;;;10239124;28;85339;-56
2022/06/20 02:29:34;;;;;;;;;;;14.50;14.60;;;;;;10244466;28;84143;-57
2022/06/20 02:34:35;;;;;;;;;;;14.40;13.80;;;;;;10243950;28;86971;-58
2022/06/20 02:39:39;;;;;;;;;;;14.50;1.00;;;;;;10223062;28;84106;-57
2022/06/20 02:44:44;;;;;;;;;;;14.60;23.40;;;;;;10235824;28;84832;-57
2022/06/20 02:49:46;;;;;;;;;;;14.70;1.00;;;;;;10148502;28;86033;-57
2022/06/20 02:54:47;;;;;;;;;;;14.60;4.00;;;;;;10176848;28;84789;-59
2022/06/20 02:59:51;;;;;;;;;;;14.60;8.20;;;;;;10210586;28;84119;-56
2022/06/20 03:04:51;;;;;;;;;;;14.80;1.00;;;;;;10209073;28;84280;-60
2022/06/20 03:09:54;;;;;;;;;;;14.80;15.90;;;;;;10207481;28;84967;-55
2022/06/20 03:14:58;;;;;;;;;;;14.90;9.30;;;;;;10241977;28;84996;-57
2022/06/20 03:20:01;;;;;;;;;;;14.80;1.00;;;;;;10251378;28;84134;-58
2022/06/20 03:25:02;;;;;;;;;;;14.80;1.00;;;;;;10240926;28;84988;-55
2022/06/20 03:30:21;;;;;;;;;;;14.80;9.20;;;;;;10212969;28;84945;-58
2022/06/20 03:35:22;;;;;;;;;;;14.80;1.00;;;;;;10209849;28;84674;-52
2022/06/20 03:40:22;;;;;;;;;;;14.80;1.00;;;;;;10209780;28;84230;-56
2022/06/20 03:45:25;;;;;;;;;;;14.60;1.00;;;;;;10216582;28;85719;-59
2022/06/20 03:50:35;;;;;;;;;;;14.60;1.00;;;;;;10209982;28;84257;-58
2022/06/20 03:55:44;;;;;;;;;;;14.60;1.00;;;;;;10208685;28;86057;-60
2022/06/20 04:00:54;;;;;;;;;;;14.50;3.10;;;;;;10212628;28;85963;-56
2022/06/20 04:06:06;;;;;;;;;;;14.40;35.40;;;;;;10209344;28;84986;-58
2022/06/20 04:11:07;;;;;;;;;;;14.50;59.60;;;;;;10227715;28;84842;-58
2022/06/20 04:16:10;;;;;;;;;;;14.60;35.10;;;;;;10209604;28;87164;-59
2022/06/20 04:21:26;;;;;;;;;;;14.60;36.50;;;;;;10206378;28;84536;-56
2022/06/20 04:26:33;;;;;;;;;;;14.60;23.00;;;;;;10194696;28;84850;-59
2022/06/20 04:31:34;;;;;;;;;;;14.70;24.30;;;;;;10192115;28;84275;-58
2022/06/20 04:36:37;;;;;;;;;;;14.60;12.10;;;;;;10185449;28;84228;-57
2022/06/20 04:41:47;;;;;;;;;;;14.60;2.60;;;;;;10187820;28;84099;-57
2022/06/20 04:46:50;;;;;;;;;;;14.60;1.00;;;;;;10185986;28;84786;-54
2022/06/20 04:51:52;;;;;;;;;;;14.60;1.00;;;;;;10187801;28;84589;-56
2022/06/20 04:56:54;;;;;;;;;;;14.60;1.00;;;;;;10187698;28;84092;-54
2022/06/20 05:01:57;;;;;;;;;;;14.50;1.00;;;;;;10206204;28;84154;-56
2022/06/20 05:07:01;;;;;;;;;;;14.50;1.00;;;;;;10207071;28;84798;-57
2022/06/20 05:12:05;;;;;;;;;;;14.50;1.00;;;;;;10191266;28;84355;-57
2022/06/20 05:17:11;;;;;;;;;;;14.60;1.00;;;;;;10193120;28;86638;-56
2022/06/20 05:22:16;;;;;;;;;;;14.70;1.00;;;;;;10193331;28;84306;-57
2022/06/20 05:27:23;;;;;;;;;;;14.80;1.00;;;;;;10193526;28;84549;-53
2022/06/20 05:32:28;;;;;;;;;;;14.90;1.00;;;;;;10206098;28;84960;-56
2022/06/20 05:37:33;;;;;;;;;;;14.80;1.00;;;;;;10198703;28;84289;-54
2022/06/20 05:42:34;;;;;;;;;;;14.90;1.00;;;;;;10197717;28;85516;-62
2022/06/20 05:47:36;;;;;;;;;;;14.90;1.00;;;;;;10206775;28;84051;-60
2022/06/20 05:52:37;;;;;;;;;;;15.00;1.00;;;;;;10204401;28;84216;-57
2022/06/20 05:57:40;;;;;;;;;;;15.10;1.00;;;;;;10203474;28;84485;-54
2022/06/20 06:02:43;;;;;;;;;;;15.30;1.00;;;;;;10222605;28;84968;-56
2022/06/20 06:07:43;;;;;;;;;;;15.50;1.00;;;;;;10184834;28;85364;-53
2022/06/20 06:12:46;;;;;;;;;;;15.50;1.00;;;;;;10182498;28;84194;-53
2022/06/20 06:17:51;;;;;;;;;;;15.60;1.00;;;;;;10214286;28;84926;-54
2022/06/20 06:22:54;;;;;;;;;;;15.90;1.00;;;;;;10217272;28;84259;-53
2022/06/20 06:28:00;;;;;;;;;;;16.10;1.00;;;;;;10220725;22;84734;-52
2022/06/20 06:33:06;;;;;;;;;;;16.40;1.00;;;;;;10241970;28;84136;-49
2022/06/20 06:38:31;;;;;;;;;;;16.60;99.90;;;;;;10215662;28;87312;-49
2022/06/20 06:43:41;;;;;;;;;;;16.70;99.90;;;;;;10196006;28;85006;-51
2022/06/20 06:48:45;;;;;;;;;;;16.50;1.00;;;;;;10204907;28;84970;-50
2022/06/20 06:54:12;;;;;;;;;;;16.60;1.00;;;;;;10205331;28;85038;-47
2022/06/20 06:59:32;;;;;;;;;;;16.60;1.00;;;;;;10218875;28;85763;-51
2022/06/20 07:04:35;;;;;;;;;;;16.60;1.00;;;;;;10244688;28;85048;-50
2022/06/20 07:09:37;;;;;;;;;;;16.90;1.00;;;;;;10245076;28;84808;-50
2022/06/20 07:14:42;;;;;;;;;;;16.50;1.00;;;;;;10244131;28;84848;-49
2022/06/20 07:19:45;;;;;;;;;;;16.90;1.00;;;;;;10244273;28;84941;-50
2022/06/20 07:24:46;;;;;;;;;;;17.40;99.90;;;;;;10244881;28;84413;-49
2022/06/20 07:29:58;;;;;;;;;;;17.80;99.90;;;;;;10243217;28;84197;-52
2022/06/20 07:35:02;;;;;;;;;;;18.40;1.00;;;;;;10245022;28;84658;-48
2022/06/20 07:40:15;;;;;;;;;;;18.40;1.00;;;;;;10244372;28;84928;-49
2022/06/20 07:45:31;;;;;;;;;;;19.00;99.90;;;;;;10244567;28;84733;-51
2022/06/20 07:50:35;;;;;;;;;;;18.90;99.90;;;;;;10248253;28;84141;-49
2022/06/20 07:55:39;;;;;;;;;;;19.40;1.00;;;;;;10251493;28;84940;-52
2022/06/20 08:00:41;;;;;;;;;;;20.10;99.90;;;;;;10250819;28;85356;-49
2022/06/20 08:05:45;;;;;;;;;;;20.30;99.90;;;;;;10251412;28;84596;-49
2022/06/20 08:10:49;;;;;;;;;;;21.00;1.00;;;;;;10251072;28;84310;-53
2022/06/20 08:15:55;;;;;;;;;;;21.00;94.90;;;;;;10250899;28;84042;-49
2022/06/20 08:21:01;;;;;;;;;;;21.40;1.00;;;;;;10249509;28;84804;-48
2022/06/20 08:26:06;;;;;;;;;;;20.70;1.00;;;;;;10250322;28;84020;-49
2022/06/20 08:31:11;;;;;;;;;;;20.10;1.00;;;;;;10249721;28;84203;-49
2022/06/20 08:36:18;;;;;;;;;;;20.00;85.70;;;;;;10247356;28;84205;-52
2022/06/20 08:41:25;;;;;;;;;;;19.90;99.90;;;;;;10249889;28;84939;-48
2022/06/20 08:46:29;;;;;;;;;;;20.70;1.00;;;;;;10249317;28;84817;-48
2022/06/20 08:51:32;;;;;;;;;;;21.40;99.90;;;;;;10249572;28;84803;-51
2022/06/20 08:56:50;;;;;;;;;;;20.80;1.00;;;;;;10248765;28;84969;-52
2022/06/20 09:01:57;;;;;;;;;;;22.30;1.00;;;;;;10247979;28;84359;-50
2022/06/20 09:07:03;;;;;;;;;;;23.50;99.90;;;;;;10246900;28;87286;-51
2022/06/20 09:12:18;;;;;;;;;;;22.10;99.90;;;;;;10247969;28;84795;-48
2022/06/20 09:17:29;;;;;;;;;;;21.20;1.00;;;;;;10247099;28;85928;-47
2022/06/20 09:22:38;;;;;;;;;;;20.50;1.00;;;;;;10246625;28;84915;-50
2022/06/20 09:27:42;;;;;;;;;;;22.10;1.00;;;;;;10215348;28;84924;-48
2022/06/20 09:33:01;;;;;;;;;;;23.20;1.00;;;;;;10206130;28;84934;-48
2022/06/20 09:38:17;;;;;;;;;;;23.20;99.90;;;;;;10207435;28;84172;-49
2022/06/20 09:43:36;;;;;;;;;;;22.60;99.90;;;;;;10207657;28;85051;-48
2022/06/20 09:48:37;;;;;;;;;;;22.10;99.90;;;;;;10205270;28;86977;-49
2022/06/20 09:53:47;;;;;;;;;;;23.20;99.90;;;;;;10206892;28;84943;-48
2022/06/20 09:58:53;;;;;;;;;;;24.40;99.90;;;;;;10220329;28;84268;-51
2022/06/20 10:04:07;;;;;;;;;;;25.00;95.10;;;;;;10245578;28;84944;-50
2022/06/20 10:09:20;;;;;;;;;;;24.60;1.00;;;;;;10246626;28;84073;-48
2022/06/20 10:14:44;;;;;;;;;;;22.50;1.00;;;;;;10245864;28;84843;-48
2022/06/20 10:19:52;;;;;;;;;;;23.40;1.00;;;;;;10246296;28;84982;-52
2022/06/20 10:24:52;;;;;;;;;;;23.50;1.00;;;;;;10247320;28;84946;-52
2022/06/20 10:29:53;;;;;;;;;;;22.90;1.00;;;;;;10245861;28;83997;-49
2022/06/20 10:35:12;;;;;;;;;;;22.10;1.00;;;;;;10244814;28;84926;-51
2022/06/20 10:40:21;;;;;;;;;;;21.50;99.90;;;;;;10245750;28;85173;-49
2022/06/20 10:45:27;;;;;;;;;;;21.70;99.90;;;;;;10245808;28;84769;-47
2022/06/20 10:50:47;;;;;;;;;;;24.20;37.60;;;;;;10244820;28;84197;-47
2022/06/20 10:56:09;;;;;;;;;;;25.20;1.00;;;;;;10244823;28;84101;-50
2022/06/20 11:01:32;;;;;;;;;;;22.80;1.00;;;;;;10211828;28;84774;-51
2022/06/20 11:06:33;;;;;;;;;;;24.00;1.00;;;;;;10200559;28;84996;-50
2022/06/20 11:11:52;;;;;;;;;;;24.90;1.00;;;;;;10204040;28;85133;-51
2022/06/20 11:16:59;;;;;;;;;;;26.40;1.00;;;;;;10206088;28;84815;-51
2022/06/20 11:22:14;;;;;;;;;;;25.10;1.00;;;;;;10235181;28;84071;-50
2022/06/20 11:27:34;;;;;;;;;;;24.60;1.00;;;;;;10254333;28;84171;-49
2022/06/20 11:32:40;;;;;;;;;;;24.60;1.00;;;;;;10252790;28;84920;-48
2022/06/20 11:37:59;;;;;;;;;;;25.50;1.00;;;;;;10250424;28;84149;-48
2022/06/20 11:42:59;;;;;;;;;;;26.80;1.00;;;;;;10250651;28;84361;-48
2022/06/20 11:48:12;;;;;;;;;;;25.50;1.00;;;;;;10251587;28;84239;-51
2022/06/20 11:53:26;;;;;;;;;;;25.20;1.00;;;;;;10251792;28;84124;-51
2022/06/20 11:58:46;;;;;;;;;;;25.70;1.00;;;;;;10252646;28;84146;-47
2022/06/20 12:03:53;;;;;;;;;;;24.00;1.00;;;;;;10250146;28;84893;-48
2022/06/20 12:08:54;;;;;;;;;;;24.00;1.00;;;;;;10251619;28;84333;-52
2022/06/20 12:14:12;;;;;;;;;;;24.40;1.00;;;;;;10252444;28;84999;-52
2022/06/20 12:24:54;;;;;;;;;;;24.20;1.00;;;;;;10257386;28;84904;-52
2022/06/20 12:29:55;;;;;;;;;;;23.50;1.00;;;;;;10260119;22;85396;-58
2022/06/20 12:35:10;;;;;;;;;;;23.70;1.00;;;;;;10209785;28;84119;-54
2022/06/20 12:40:10;;;;;;;;;;;23.10;1.00;;;;;;10209259;28;84968;-56
2022/06/20 12:45:34;;;;;;;;;;;23.00;1.00;;;;;;10209733;28;84866;-58
2022/06/20 12:50:47;;;;;;;;;;;23.30;1.00;;;;;;10198825;28;85110;-54
2022/06/20 12:55:47;;;;;;;;;;;23.20;1.00;;;;;;10209785;28;84202;-56
2022/06/20 13:01:06;;;;;;;;;;;22.80;1.00;;;;;;10210083;28;84750;-55
2022/06/20 13:06:11;;;;;;;;;;;22.60;1.00;;;;;;10210479;28;84148;-54
2022/06/20 13:11:11;;;;;;;;;;;22.50;1.00;;;;;;10201215;28;84961;-56
2022/06/20 13:16:21;;;;;;;;;;;22.60;1.00;;;;;;10214000;28;84341;-56
2022/06/20 13:21:28;;;;;;;;;;;23.00;1.00;;;;;;10206709;28;84237;-59
2022/06/20 13:26:29;;;;;;;;;;;23.20;1.00;;;;;;10205069;28;85080;-56
2022/06/20 13:31:37;;;;;;;;;;;24.40;1.00;;;;;;10206744;28;84951;-57
2022/06/20 13:36:44;;;;;;;;;;;23.80;1.00;;;;;;10210739;28;86931;-57
2022/06/20 13:41:47;;;;;;;;;;;23.50;1.00;;;;;;10204875;28;85004;-58
2022/06/20 13:46:52;;;;;;;;;;;24.90;1.00;;;;;;10205652;28;84833;-59
2022/06/20 13:51:53;;;;;;;;;;;24.30;1.00;;;;;;10201703;28;87371;-63
2022/06/20 13:57:12;;;;;;;;;;;24.30;1.00;;;;;;10210478;28;86007;-59
2022/06/20 14:02:27;;;;;;;;;;;24.30;1.00;;;;;;10216248;28;84902;-55
2022/06/20 14:07:30;;;;;;;;;;;23.50;1.00;;;;;;10229328;28;84123;-53
2022/06/20 14:12:32;;;;;;;;;;;23.30;1.00;;;;;;10224106;28;84121;-51
2022/06/20 14:17:36;;;;;;;;;;;22.70;1.00;;;;;;10225067;28;84174;-56
2022/06/20 14:22:39;;;;;;;;;;;22.30;1.00;;;;;;10221149;28;84334;-54
2022/06/20 14:27:46;;;;;;;;;;;22.40;1.00;;;;;;10201645;28;84321;-55
2022/06/20 14:32:55;;;;;;;;;;;22.30;1.00;;;;;;10200095;28;85949;-55
2022/06/20 14:38:14;;;;;;;;;;;22.50;1.00;;;;;;10198790;28;85125;-52
2022/06/20 14:43:25;;;;;;;;;;;22.30;1.00;;;;;;10200135;28;85194;-56
2022/06/20 14:48:36;;;;;;;;;;;22.10;1.00;;;;;;10188772;28;85018;-49
2022/06/20 14:53:39;;;;;;;;;;;22.00;1.00;;;;;;10198643;28;85018;-55
2022/06/20 14:58:49;;;;;;;;;;;22.20;1.00;;;;;;10214706;28;85664;-57
2022/06/20 15:03:59;;;;;;;;;;;22.00;1.00;;;;;;10209590;28;84107;-57
2022/06/20 15:09:10;;;;;;;;;;;21.90;1.00;;;;;;10183073;28;84291;-54
2022/06/20 15:14:14;;;;;;;;;;;22.00;1.00;;;;;;10200819;28;84977;-56
2022/06/20 15:19:28;;;;;;;;;;;21.60;1.00;;;;;;10208906;28;84930;-59
2022/06/20 15:24:34;;;;;;;;;;;21.70;1.00;;;;;;10209606;28;84934;-55
2022/06/20 15:29:44;;;;;;;;;;;21.50;1.00;;;;;;10208195;28;85329;-58
2022/06/20 15:34:45;;;;;;;;;;;21.30;1.00;;;;;;10207152;28;85334;-57
2022/06/20 15:39:49;;;;;;;;;;;21.10;1.00;;;;;;10208584;28;84375;-57
2022/06/20 15:44:56;;;;;;;;;;;21.00;1.90;;;;;;10208449;28;84925;-52
2022/06/20 15:50:00;;;;;;;;;;;20.90;99.90;;;;;;10207479;28;84509;-55
2022/06/20 15:55:08;;;;;;;;;;;20.90;99.90;;;;;;10205610;28;84944;-57
2022/06/20 16:00:22;;;;;;;;;;;20.80;99.90;;;;;;10205229;28;84475;-55
2022/06/20 16:05:42;;;;;;;;;;;20.90;99.90;;;;;;10204498;28;84725;-59
2022/06/20 16:10:57;;;;;;;;;;;21.00;99.90;;;;;;10204807;28;85259;-55
2022/06/20 16:16:06;;;;;;;;;;;20.90;99.90;;;;;;10205915;28;84825;-56
2022/06/20 16:21:12;;;;;;;;;;;20.90;99.90;;;;;;10204437;28;84279;-55
2022/06/20 16:26:24;;;;;;;;;;;20.90;99.90;;;;;;10204149;28;85640;-54
2022/06/20 16:31:26;;;;;;;;;;;20.90;99.90;;;;;;10205400;28;84758;-58
2022/06/20 16:36:28;;;;;;;;;;;21.10;98.60;;;;;;10203735;28;85054;-58
2022/06/20 16:41:38;;;;;;;;;;;21.00;1.00;;;;;;10207899;28;84730;-60
2022/06/20 16:46:48;;;;;;;;;;;20.90;1.00;;;;;;10227310;28;84180;-55
2022/06/20 16:51:55;;;;;;;;;;;21.00;13.40;;;;;;10227140;28;84738;-58
2022/06/20 16:56:58;;;;;;;;;;;21.10;19.20;;;;;;10214489;28;86870;-57
2022/06/20 17:02:08;;;;;;;;;;;20.90;42.70;;;;;;10199506;28;85266;-53
2022/06/20 17:07:29;;;;;;;;;;;20.90;93.50;;;;;;10209358;28;84784;-55
2022/06/20 17:12:32;;;;;;;;;;;20.90;99.90;;;;;;10205828;28;84315;-65
2022/06/20 17:17:52;;;;;;;;;;;20.80;99.90;;;;;;10210595;28;84288;-56
2022/06/20 17:22:59;;;;;;;;;;;20.80;99.90;;;;;;10221351;28;84964;-55
2022/06/20 17:28:10;;;;;;;;;;;20.70;99.90;;;;;;10207740;28;85370;-58
2022/06/20 17:33:34;;;;;;;;;;;20.30;99.90;;;;;;10191582;28;85205;-53
2022/06/20 17:38:49;;;;;;;;;;;20.20;99.90;;;;;;10189044;28;85036;-59
2022/06/20 17:43:53;;;;;;;;;;;20.20;99.90;;;;;;10212519;28;85741;-50
2022/06/20 17:48:54;;;;;;;;;;;20.10;99.90;;;;;;10198842;28;84593;-57
2022/06/20 17:54:00;;;;;;;;;;;20.00;99.90;;;;;;10200282;28;85060;-57
2022/06/20 17:59:20;;;;;;;;;;;20.00;99.90;;;;;;10201404;28;85288;-56
2022/06/20 18:04:42;;;;;;;;;;;19.90;99.90;;;;;;10198699;28;84556;-59
2022/06/20 18:09:45;;;;;;;;;;;19.80;1.00;;;;;;10204280;28;85929;-59
2022/06/20 18:14:49;;;;;;;;;;;19.80;1.00;;;;;;10212690;28;84977;-58
2022/06/20 18:19:58;;;;;;;;;;;19.60;1.00;;;;;;10208671;28;84903;-54
2022/06/20 18:25:09;;;;;;;;;;;19.40;1.00;;;;;;10201271;28;84366;-61
2022/06/20 18:30:10;;;;;;;;;;;19.20;1.00;;;;;;10211616;22;84971;-60
2022/06/20 18:35:12;;;;;;;;;;;19.30;1.00;;;;;;10205217;28;84270;-60
2022/06/20 18:40:19;;;;;;;;;;;19.30;1.00;;;;;;10205425;28;84318;-56
2022/06/20 18:45:24;;;;;;;;;;;19.00;1.00;;;;;;10197973;28;84836;-55
2022/06/20 18:50:34;;;;;;;;;;;19.00;1.00;;;;;;10200828;28;85332;-53
2022/06/20 18:55:56;;;;;;;;;;;19.00;1.00;;;;;;10205842;28;85049;-58
2022/06/20 19:01:16;;;;;;;;;;;18.90;1.00;;;;;;10209127;28;84338;-62
2022/06/20 19:06:38;;;;;;;;;;;18.70;1.00;;;;;;10205295;28;86526;-56
2022/06/20 19:11:55;;;;;;;;;;;18.50;1.00;;;;;;10205041;28;84269;-63
2022/06/20 19:17:03;;;;;;;;;;;18.40;99.90;;;;;;10204410;28;85156;-59
2022/06/20 19:22:11;;;;;;;;;;;18.30;99.90;;;;;;10204856;28;84786;-62
2022/06/20 19:27:14;;;;;;;;;;;18.10;1.00;;;;;;10204389;28;84840;-63
2022/06/20 19:32:18;;;;;;;;;;;18.00;99.90;;;;;;10200890;28;85065;-63
2022/06/20 19:37:19;;;;;;;;;;;17.90;1.00;;;;;;10204655;28;84929;-63
2022/06/20 19:42:25;;;;;;;;;;;17.80;81.80;;;;;;10205057;28;85825;-63
2022/06/20 19:47:25;;;;;;;;;;;17.70;99.90;;;;;;10213393;28;84277;-62
2022/06/20 19:52:26;;;;;;;;;;;17.70;99.90;;;;;;10215274;28;86175;-65
2022/06/20 19:57:27;;;;;;;;;;;17.50;1.00;;;;;;10210360;28;84825;-62
2022/06/20 20:02:28;;;;;;;;;;;17.50;1.00;;;;;;10209351;28;84796;-62
2022/06/20 20:07:48;;;;;;;;;;;17.50;1.00;;;;;;10214160;28;84254;-62
2022/06/20 20:12:50;;;;;;;;;;;17.30;1.00;;;;;;10213342;28;84773;-65
2022/06/20 20:18:09;;;;;;;;;;;17.30;97.00;;;;;;10212334;28;85178;-62
2022/06/20 20:23:10;;;;;;;;;;;17.20;99.90;;;;;;10212538;28;84984;-64
2022/06/20 20:28:17;;;;;;;;;;;17.10;1.00;;;;;;10218788;28;85040;-63
2022/06/20 20:33:38;;;;;;;;;;;17.00;99.90;;;;;;10214715;28;84921;-66
2022/06/20 20:38:56;;;;;;;;;;;16.90;1.00;;;;;;10207160;28;84235;-64
2022/06/20 20:44:09;;;;;;;;;;;16.80;1.00;;;;;;10196641;28;86540;-63
2022/06/20 20:49:15;;;;;;;;;;;16.70;99.90;;;;;;10212098;28;84193;-64
2022/06/20 20:54:17;;;;;;;;;;;16.60;1.00;;;;;;10213330;28;84096;-62
2022/06/20 20:59:21;;;;;;;;;;;16.60;1.00;;;;;;10206161;28;84322;-64
2022/06/20 21:04:36;;;;;;;;;;;16.50;99.90;;;;;;10201507;28;84151;-64
2022/06/20 21:09:41;;;;;;;;;;;16.40;1.00;;;;;;10214012;28;84150;-63
2022/06/20 21:14:48;;;;;;;;;;;16.40;1.00;;;;;;10210275;28;84302;-64
2022/06/20 21:19:50;;;;;;;;;;;16.30;1.00;;;;;;10208330;28;84170;-61
2022/06/20 21:24:52;;;;;;;;;;;16.20;1.00;;;;;;10209515;28;84575;-61
2022/06/20 21:29:53;;;;;;;;;;;16.20;99.90;;;;;;10212636;28;84168;-62
2022/06/20 21:35:20;;;;;;;;;;;16.00;99.90;;;;;;10210281;28;84266;-64
2022/06/20 21:40:25;;;;;;;;;;;15.90;1.00;;;;;;10208437;28;84228;-63
2022/06/20 21:45:35;;;;;;;;;;;15.90;1.00;;;;;;10209592;28;84482;-63
2022/06/20 21:50:41;;;;;;;;;;;15.80;1.00;;;;;;10210332;28;85291;-63
2022/06/20 21:55:42;;;;;;;;;;;15.70;1.00;;;;;;10207188;28;84207;-64
2022/06/20 22:00:43;;;;;;;;;;;15.60;1.00;;;;;;10194431;28;84206;-63
2022/06/20 22:05:44;;;;;;;;;;;15.50;1.00;;;;;;10200660;28;84946;-63
2022/06/20 22:10:54;;;;;;;;;;;15.40;99.90;;;;;;10208421;28;84978;-64
2022/06/20 22:15:55;;;;;;;;;;;15.40;99.90;;;;;;10205430;28;84185;-64
2022/06/20 22:21:08;;;;;;;;;;;15.20;99.90;;;;;;10206320;28;84411;-64
2022/06/20 22:26:15;;;;;;;;;;;15.20;99.90;;;;;;10206516;28;84620;-63
2022/06/20 22:31:18;;;;;;;;;;;15.00;1.00;;;;;;10206251;28;84061;-63
2022/06/20 22:36:18;;;;;;;;;;;15.00;1.00;;;;;;10206684;28;84288;-63
2022/06/20 22:41:27;;;;;;;;;;;14.90;1.00;;;;;;10204028;28;86883;-64
2022/06/20 22:46:31;;;;;;;;;;;14.80;1.00;;;;;;10206678;28;84840;-63
2022/06/20 22:51:32;;;;;;;;;;;14.80;1.00;;;;;;10204137;28;84132;-63
2022/06/20 22:56:35;;;;;;;;;;;14.70;1.00;;;;;;10205739;28;85914;-63
2022/06/20 23:01:40;;;;;;;;;;;14.60;1.00;;;;;;10192755;28;85170;-65
2022/06/20 23:06:45;;;;;;;;;;;14.60;1.00;;;;;;10205411;28;84123;-64
2022/06/20 23:11:48;;;;;;;;;;;14.50;1.00;;;;;;10206949;28;84250;-64
2022/06/20 23:22:16;;;;;;;;;;;14.40;1.00;;;;;;10213091;28;84545;-63
2022/06/20 23:27:17;;;;;;;;;;;14.30;1.00;;;;;;10218543;28;85020;-63
2022/06/20 23:32:20;;;;;;;;;;;14.20;1.00;;;;;;10212369;28;84898;-63
2022/06/20 23:37:23;;;;;;;;;;;14.20;1.00;;;;;;10215679;28;84177;-63
2022/06/20 23:42:24;;;;;;;;;;;14.10;1.00;;;;;;10212383;28;84699;-62
2022/06/20 23:47:27;;;;;;;;;;;14.00;1.00;;;;;;10210580;28;86579;-63
2022/06/20 23:52:28;;;;;;;;;;;14.00;1.00;;;;;;10210627;28;85954;-62
2022/06/20 23:57:29;;;;;;;;;;;13.90;1.00;;;;;;10211480;28;84398;-63
